Time;durP1;ratioP1;P1;durP2;ratioP2;P2;SDS_P1;SDS_P2;PMS_P1;PMS_P2;Temp;Humidity;BMP_temperature;BMP_pressure;BME280_temperature;BME280_humidity;BME280_pressure;Samples;Min_cycle;Max_cycle;Signal;HPM_P1;HPM_P2
2022/09/13 00:02:17;;;;;;;;;;;;;;;;;;6236587;22;19968;-93
2022/09/13 00:04:43;;;;;;;;;;;;;;;;;;6238840;22;19990;-92
2022/09/13 00:07:09;;;;;;;;;;;;;;;;;;6240545;22;19947;-93
2022/09/13 00:09:36;;;;;;;;;;;;;;;;;;6236331;22;20190;-92
2022/09/13 00:12:02;;;;;;;;;;;;;;;;;;6264216;22;19927;-93
2022/09/13 00:14:28;;;;;;;;;;;;;;;;;;6239318;22;19982;-93
2022/09/13 00:16:54;;;;;;;;;;;;;;;;;;6260356;22;19935;-94
2022/09/13 00:19:20;;;;;;;;;;;;;;;;;;6235329;22;19919;-93
2022/09/13 00:21:47;;;;;;;;;;;;;;;;;;6233375;22;19974;-93
2022/09/13 00:24:16;;;;;;;;;;;;;;;;;;6239100;22;20313;-94
2022/09/13 00:26:42;;;;;;;;;;;;;;;;;;6236600;22;19934;-92
2022/09/13 00:29:08;;;;;;;;;;;;;;;;;;6235274;22;19949;-94
2022/09/13 00:31:34;;;;;;;;;;;;;;;;;;6231438;22;19926;-93
2022/09/13 00:34:00;;;;;;;;;;;;;;;;;;6237469;22;19923;-94
2022/09/13 00:36:26;;;;;;;;;;;;;;;;;;6236727;22;19939;-93
2022/09/13 00:39:01;;;;;;;;;;;;;;;;;;6234834;22;20453;-93
2022/09/13 00:41:27;;;;;;;;;;;;;;;;;;6233692;22;19919;-93
2022/09/13 00:43:53;;;;;;;;;;;;;;;;;;6232050;22;19926;-92
2022/09/13 00:46:19;;;;;;;;;;;;;;;;;;6233546;22;19920;-91
2022/09/13 00:48:45;;;;;;;;;;;;;;;;;;6229293;22;19919;-93
2022/09/13 00:51:11;;;;;;;;;;;;;;;;;;6257846;22;19965;-94
2022/09/13 00:53:37;;;;;;;;;;;;;;;;;;6253994;22;19919;-94
2022/09/13 00:56:03;;;;;;;;;;;;;;;;;;6235051;22;19953;-95
2022/09/13 00:58:33;;;;;;;;;;;;;;;;;;6232102;22;19919;-95
2022/09/13 01:00:59;;;;;;;;;;;;;;;;;;6235080;22;19919;-94
2022/09/13 01:03:25;;;;;;;;;;;;;;;;;;6237363;22;19919;-95
2022/09/13 01:05:51;;;;;;;;;;;;;;;;;;6234548;22;20389;-95
2022/09/13 01:08:22;;;;;;;;;;;;;;;;;;6234099;22;20251;-95
2022/09/13 01:10:49;;;;;;;;;;;;;;;;;;6231896;22;19947;-94
2022/09/13 01:13:16;;;;;;;;;;;;;;;;;;6232971;22;19923;-95
2022/09/13 01:15:42;;;;;;;;;;;;;;;;;;6234108;22;19919;-93
2022/09/13 01:18:08;;;;;;;;;;;;;;;;;;6239390;22;20356;-95
2022/09/13 01:20:34;;;;;;;;;;;;;;;;;;6265068;22;20413;-95
2022/09/13 01:23:00;;;;;;;;;;;;;;;;;;6239763;22;20351;-94
2022/09/13 01:25:27;;;;;;;;;;;;;;;;;;6237869;22;19985;-94
2022/09/13 01:27:56;;;;;;;;;;;;;;;;;;6238316;22;20406;-95
2022/09/13 01:30:22;;;;;;;;;;;;;;;;;;6240800;22;19915;-94
2022/09/13 01:32:51;;;;;;;;;;;;;;;;;;6235889;22;20371;-93
2022/09/13 01:35:17;;;;;;;;;;;;;;;;;;6242271;22;19953;-94
2022/09/13 01:37:51;;;;;;;;;;;;;;;;;;6228872;22;19926;-95
2022/09/13 01:40:17;;;;;;;;;;;;;;;;;;6238413;22;19915;-95
2022/09/13 01:42:43;;;;;;;;;;;;;;;;;;6237282;22;20441;-93
2022/09/13 01:45:09;;;;;;;;;;;;;;;;;;6238298;22;19993;-92
2022/09/13 01:47:35;;;;;;;;;;;;;;;;;;6239222;22;19998;-93
2022/09/13 01:50:01;;;;;;;;;;;;;;;;;;6243812;22;20323;-91
2022/09/13 01:52:27;;;;;;;;;;;;;;;;;;6242399;22;19930;-94
2022/09/13 01:54:53;;;;;;;;;;;;;;;;;;6265793;22;19918;-92
2022/09/13 01:57:22;;;;;;;;;;;;;;;;;;6240774;22;19915;-92
2022/09/13 01:59:48;;;;;;;;;;;;;;;;;;6241806;22;20368;-93
2022/09/13 02:02:14;;;;;;;;;;;;;;;;;;6241475;22;19953;-93
2022/09/13 02:04:48;;;;;;;;;;;;;;;;;;6240372;22;19976;-92
2022/09/13 02:07:16;;;;;;;;;;;;;;;;;;6242175;22;19919;-93
2022/09/13 02:09:42;;;;;;;;;;;;;;;;;;6237521;22;19925;-93
2022/09/13 02:12:08;;;;;;;;;;;;;;;;;;6265763;22;20465;-92
2022/09/13 02:14:34;;;;;;;;;;;;;;;;;;6236669;22;19953;-92
2022/09/13 02:17:01;;;;;;;;;;;;;;;;;;6244054;22;19926;-91
2022/09/13 02:19:27;;;;;;;;;;;;;;;;;;6270261;22;19914;-92
2022/09/13 02:21:53;;;;;;;;;;;;;;;;;;6241448;22;19919;-93
2022/09/13 02:24:19;;;;;;;;;;;;;;;;;;6242988;22;19919;-94
2022/09/13 02:26:45;;;;;;;;;;;;;;;;;;6239580;22;19926;-92
2022/09/13 02:29:11;;;;;;;;;;;;;;;;;;6241985;22;19990;-93
2022/09/13 02:31:37;;;;;;;;;;;;;;;;;;6240414;22;19946;-92
2022/09/13 02:34:03;;;;;;;;;;;;;;;;;;6269015;22;19918;-93
2022/09/13 02:36:35;;;;;;;;;;;;;;;;;;6244721;22;19926;-92
2022/09/13 02:39:01;;;;;;;;;;;;;;;;;;6268889;22;19928;-92
2022/09/13 02:41:27;;;;;;;;;;;;;;;;;;6244148;22;19958;-93
2022/09/13 02:43:53;;;;;;;;;;;;;;;;;;6241344;22;19919;-92
2022/09/13 02:46:19;;;;;;;;;;;;;;;;;;6244806;22;19919;-94
2022/09/13 02:48:48;;;;;;;;;;;;;;;;;;6237623;22;20355;-91
2022/09/13 02:51:14;;;;;;;;;;;;;;;;;;6242968;22;19918;-92
2022/09/13 02:53:40;;;;;;;;;;;;;;;;;;6241754;22;20431;-91
2022/09/13 02:56:06;;;;;;;;;;;;;;;;;;6244456;22;20297;-93
2022/09/13 02:58:33;;;;;;;;;;;;;;;;;;6238845;22;19942;-92
2022/09/13 03:00:59;;;;;;;;;;;;;;;;;;6244492;22;20323;-93
2022/09/13 03:03:25;;;;;;;;;;;;;;;;;;6243950;22;19961;-93
2022/09/13 03:05:54;;;;;;;;;;;;;;;;;;6243207;22;19918;-93
2022/09/13 03:08:20;;;;;;;;;;;;;;;;;;6244796;22;20331;-93
2022/09/13 03:10:46;;;;;;;;;;;;;;;;;;6241511;22;19915;-92
2022/09/13 03:13:15;;;;;;;;;;;;;;;;;;6244671;22;20011;-93
2022/09/13 03:15:43;;;;;;;;;;;;;;;;;;6241154;22;19918;-93
2022/09/13 03:18:15;;;;;;;;;;;;;;;;;;6270361;22;20288;-92
2022/09/13 03:20:41;;;;;;;;;;;;;;;;;;6265681;22;19924;-92
2022/09/13 03:23:07;;;;;;;;;;;;;;;;;;6243979;22;20339;-92
2022/09/13 03:25:33;;;;;;;;;;;;;;;;;;6268212;22;19954;-93
2022/09/13 03:27:59;;;;;;;;;;;;;;;;;;6244809;22;20265;-94
2022/09/13 03:30:25;;;;;;;;;;;;;;;;;;6268530;22;19918;-92
2022/09/13 03:32:51;;;;;;;;;;;;;;;;;;6240515;22;20308;-93
2022/09/13 03:35:17;;;;;;;;;;;;;;;;;;6247001;22;20454;-93
2022/09/13 03:37:45;;;;;;;;;;;;;;;;;;6242428;22;19918;-93
2022/09/13 03:40:11;;;;;;;;;;;;;;;;;;6243893;22;19919;-93
2022/09/13 03:42:40;;;;;;;;;;;;;;;;;;6265933;22;20405;-94
2022/09/13 03:45:06;;;;;;;;;;;;;;;;;;6270020;22;19922;-93
2022/09/13 03:47:32;;;;;;;;;;;;;;;;;;6240766;22;20311;-94
2022/09/13 03:50:01;;;;;;;;;;;;;;;;;;6245088;22;19919;-93
2022/09/13 03:52:27;;;;;;;;;;;;;;;;;;6244335;22;19919;-94
2022/09/13 03:54:55;;;;;;;;;;;;;;;;;;6242523;22;20253;-93
2022/09/13 03:57:21;;;;;;;;;;;;;;;;;;6241666;22;19922;-93
2022/09/13 03:59:47;;;;;;;;;;;;;;;;;;6269515;22;20050;-93
2022/09/13 04:02:13;;;;;;;;;;;;;;;;;;6245017;22;20036;-92
2022/09/13 04:04:39;;;;;;;;;;;;;;;;;;6243140;22;19919;-92
2022/09/13 04:07:08;;;;;;;;;;;;;;;;;;6247111;22;20010;-93
2022/09/13 04:09:34;;;;;;;;;;;;;;;;;;6243960;22;19950;-93
2022/09/13 04:12:00;;;;;;;;;;;;;;;;;;6246545;22;19934;-92
2022/09/13 04:14:27;;;;;;;;;;;;;;;;;;6246156;22;20528;-93
2022/09/13 04:16:53;;;;;;;;;;;;;;;;;;6263779;22;19924;-93
2022/09/13 04:19:19;;;;;;;;;;;;;;;;;;6241740;22;19919;-94
2022/09/13 04:21:45;;;;;;;;;;;;;;;;;;6238269;22;20351;-92
2022/09/13 04:24:13;;;;;;;;;;;;;;;;;;6241355;22;19925;-92
2022/09/13 04:26:39;;;;;;;;;;;;;;;;;;6237715;22;20225;-93
2022/09/13 04:29:05;;;;;;;;;;;;;;;;;;6240479;22;20388;-94
2022/09/13 04:31:31;;;;;;;;;;;;;;;;;;6238339;22;19920;-93
2022/09/13 04:33:58;;;;;;;;;;;;;;;;;;6239279;22;19955;-93
2022/09/13 04:36:27;;;;;;;;;;;;;;;;;;6264772;22;19919;-92
2022/09/13 04:38:54;;;;;;;;;;;;;;;;;;6259216;22;20018;-92
2022/09/13 04:41:19;;;;;;;;;;;;;;;;;;6235552;22;19985;-92
2022/09/13 04:43:45;;;;;;;;;;;;;;;;;;6256670;22;20359;-94
2022/09/13 04:46:21;;;;;;;;;;;;;;;;;;6239031;22;20248;-95
2022/09/13 04:48:50;;;;;;;;;;;;;;;;;;6236795;22;19942;-96
2022/09/13 04:51:24;;;;;;;;;;;;;;;;;;6263009;22;19931;-96
2022/09/13 04:53:52;;;;;;;;;;;;;;;;;;6233479;22;20713;-92
2022/09/13 04:56:27;;;;;;;;;;;;;;;;;;6230485;22;20174;-94
2022/09/13 04:58:53;;;;;;;;;;;;;;;;;;6256016;22;19929;-95
2022/09/13 05:01:28;;;;;;;;;;;;;;;;;;6238921;22;19994;-94
2022/09/13 05:04:05;;;;;;;;;;;;;;;;;;6241068;22;20430;-94
2022/09/13 05:06:31;;;;;;;;;;;;;;;;;;6234976;22;20318;-95
2022/09/13 05:08:57;;;;;;;;;;;;;;;;;;6238117;22;19915;-93
2022/09/13 05:11:23;;;;;;;;;;;;;;;;;;6237792;22;19915;-95
2022/09/13 05:13:54;;;;;;;;;;;;;;;;;;6259783;22;19930;-95
2022/09/13 05:16:22;;;;;;;;;;;;;;;;;;6242346;22;19993;-94
2022/09/13 05:18:48;;;;;;;;;;;;;;;;;;6240526;22;19926;-93
2022/09/13 05:21:17;;;;;;;;;;;;;;;;;;6241842;22;19990;-94
2022/09/13 05:23:43;;;;;;;;;;;;;;;;;;6243758;22;19954;-93
2022/09/13 05:26:09;;;;;;;;;;;;;;;;;;6242612;22;19918;-94
2022/09/13 05:28:35;;;;;;;;;;;;;;;;;;6238737;22;20290;-93
2022/09/13 05:31:01;;;;;;;;;;;;;;;;;;6268069;22;20251;-94
2022/09/13 05:33:27;;;;;;;;;;;;;;;;;;6243914;22;20283;-95
2022/09/13 05:35:56;;;;;;;;;;;;;;;;;;6248761;22;19919;-95
2022/09/13 05:38:22;;;;;;;;;;;;;;;;;;6243847;22;19925;-94
2022/09/13 05:40:51;;;;;;;;;;;;;;;;;;6238339;22;19985;-94
2022/09/13 05:43:17;;;;;;;;;;;;;;;;;;6242923;22;19919;-95
2022/09/13 05:45:43;;;;;;;;;;;;;;;;;;6239766;22;20304;-95
2022/09/13 05:48:17;;;;;;;;;;;;;;;;;;6245514;22;19960;-95
2022/09/13 05:50:43;;;;;;;;;;;;;;;;;;6269022;22;19922;-93
2022/09/13 05:53:09;;;;;;;;;;;;;;;;;;6245673;22;19923;-94
2022/09/13 05:55:38;;;;;;;;;;;;;;;;;;6243222;22;19964;-95
2022/09/13 05:58:04;;;;;;;;;;;;;;;;;;6244962;22;19919;-94
2022/09/13 06:03:52;;;;;;;;;;;;;;;;;;6302945;22;19914;-94
2022/09/13 06:06:18;;;;;;;;;;;;;;;;;;6266813;22;19964;-93
2022/09/13 06:08:44;;;;;;;;;;;;;;;;;;6242097;22;19919;-94
2022/09/13 06:11:11;;;;;;;;;;;;;;;;;;6246743;22;19923;-94
2022/09/13 06:13:37;;;;;;;;;;;;;;;;;;6237793;22;20105;-95
2022/09/13 06:16:03;;;;;;;;;;;;;;;;;;6243435;22;19965;-96
2022/09/13 06:18:29;;;;;;;;;;;;;;;;;;6245138;22;19914;-94
2022/09/13 06:20:59;;;;;;;;;;;;;;;;;;6242163;22;19922;-95
2022/09/13 06:23:25;;;;;;;;;;;;;;;;;;6245444;22;19914;-95
2022/09/13 06:25:51;;;;;;;;;;;;;;;;;;6243706;22;20354;-94
2022/09/13 06:28:17;;;;;;;;;;;;;;;;;;6246183;22;20336;-93
2022/09/13 06:30:43;;;;;;;;;;;;;;;;;;6245491;22;19970;-95
2022/09/13 06:33:09;;;;;;;;;;;;;;;;;;6243346;22;19923;-94
2022/09/13 06:35:35;;;;;;;;;;;;;;;;;;6242278;22;19982;-95
2022/09/13 06:38:04;;;;;;;;;;;;;;;;;;6245287;22;19946;-93
2022/09/13 06:40:33;;;;;;;;;;;;;;;;;;6247406;22;19922;-93
2022/09/13 06:46:14;;;;;;;;;;;;;;;;;;6186394;23;19923;-93
2022/09/13 06:48:53;;;;;;;;;;;;;;;;;;6252872;22;19958;-93
2022/09/13 06:51:22;;;;;;;;;;;;;;;;;;6246682;22;19919;-94
2022/09/13 06:53:48;;;;;;;;;;;;;;;;;;6244489;22;20072;-94
2022/09/13 06:56:17;;;;;;;;;;;;;;;;;;6246545;22;19919;-94
2022/09/13 06:58:43;;;;;;;;;;;;;;;;;;6243509;22;20335;-93
2022/09/13 07:01:10;;;;;;;;;;;;;;;;;;6245510;22;19918;-93
2022/09/13 07:03:36;;;;;;;;;;;;;;;;;;6268038;22;19940;-93
2022/09/13 07:06:05;;;;;;;;;;;;;;;;;;6246153;22;20347;-94
2022/09/13 07:08:31;;;;;;;;;;;;;;;;;;6243523;22;19919;-93
2022/09/13 07:10:57;;;;;;;;;;;;;;;;;;6246791;22;19926;-95
2022/09/13 07:13:25;;;;;;;;;;;;;;;;;;6244617;22;19919;-94
2022/09/13 07:15:57;;;;;;;;;;;;;;;;;;6242676;22;20336;-94
2022/09/13 07:18:23;;;;;;;;;;;;;;;;;;6269900;22;20024;-94
2022/09/13 07:20:51;;;;;;;;;;;;;;;;;;6243066;22;19919;-94
2022/09/13 07:23:18;;;;;;;;;;;;;;;;;;6244821;22;19919;-93
2022/09/13 07:25:43;;;;;;;;;;;;;;;;;;6242898;22;20220;-94
2022/09/13 07:28:12;;;;;;;;;;;;;;;;;;6246256;22;20591;-93
2022/09/13 07:30:44;;;;;;;;;;;;;;;;;;6269028;22;20347;-94
2022/09/13 07:33:17;;;;;;;;;;;;;;;;;;6245358;22;19933;-93
2022/09/13 07:35:44;;;;;;;;;;;;;;;;;;6243217;22;19915;-93
2022/09/13 07:38:10;;;;;;;;;;;;;;;;;;6244769;22;19927;-94
2022/09/13 07:40:36;;;;;;;;;;;;;;;;;;6242713;22;19925;-95
2022/09/13 07:43:02;;;;;;;;;;;;;;;;;;6246099;22;19919;-95
2022/09/13 07:45:30;;;;;;;;;;;;;;;;;;6245469;22;19915;-95
2022/09/13 07:47:59;;;;;;;;;;;;;;;;;;6246900;22;20006;-94
2022/09/13 07:50:25;;;;;;;;;;;;;;;;;;6245508;22;19919;-95
2022/09/13 07:52:54;;;;;;;;;;;;;;;;;;6242628;22;19919;-95
2022/09/13 07:55:20;;;;;;;;;;;;;;;;;;6245708;22;19929;-95
2022/09/13 07:57:46;;;;;;;;;;;;;;;;;;6267390;22;20422;-94
2022/09/13 08:00:13;;;;;;;;;;;;;;;;;;6245427;22;19919;-96
2022/09/13 08:02:41;;;;;;;;;;;;;;;;;;6242173;22;19922;-95
2022/09/13 08:05:07;;;;;;;;;;;;;;;;;;6244612;22;19919;-94
2022/09/13 08:07:33;;;;;;;;;;;;;;;;;;6242858;22;19964;-96
2022/09/13 08:10:01;;;;;;;;;;;;;;;;;;6245973;22;19919;-95
2022/09/13 08:12:27;;;;;;;;;;;;;;;;;;6245371;22;19919;-95
2022/09/13 08:14:54;;;;;;;;;;;;;;;;;;6242368;22;19919;-95
2022/09/13 08:17:22;;;;;;;;;;;;;;;;;;6270495;22;20258;-94
2022/09/13 08:19:51;;;;;;;;;;;;;;;;;;6240521;22;19980;-95
2022/09/13 08:22:19;;;;;;;;;;;;;;;;;;6246717;22;19968;-96
2022/09/13 08:24:45;;;;;;;;;;;;;;;;;;6243435;22;19915;-95
2022/09/13 08:27:14;;;;;;;;;;;;;;;;;;6245339;22;20370;-95
2022/09/13 08:29:41;;;;;;;;;;;;;;;;;;6242969;22;19968;-95
2022/09/13 08:32:07;;;;;;;;;;;;;;;;;;6245301;22;19923;-95
2022/09/13 08:34:33;;;;;;;;;;;;;;;;;;6242587;22;19965;-95
2022/09/13 08:36:59;;;;;;;;;;;;;;;;;;6245984;22;19941;-96
2022/09/13 08:39:35;;;;;;;;;;;;;;;;;;6246566;22;19919;-96
2022/09/13 08:42:01;;;;;;;;;;;;;;;;;;6271366;22;20003;-96
2022/09/13 08:44:28;;;;;;;;;;;;;;;;;;6245779;22;19919;-96
2022/09/13 08:46:54;;;;;;;;;;;;;;;;;;6244133;22;19954;-96
2022/09/13 08:49:20;;;;;;;;;;;;;;;;;;6246101;22;19923;-96
2022/09/13 08:51:46;;;;;;;;;;;;;;;;;;6242522;22;19926;-96
2022/09/13 08:54:14;;;;;;;;;;;;;;;;;;6245082;22;19986;-96
2022/09/13 08:56:44;;;;;;;;;;;;;;;;;;6243876;22;19949;-95
2022/09/13 08:59:15;;;;;;;;;;;;;;;;;;6272375;22;19921;-96
2022/09/13 09:01:45;;;;;;;;;;;;;;;;;;6244532;22;19925;-95
2022/09/13 09:04:11;;;;;;;;;;;;;;;;;;6270101;22;20003;-94
2022/09/13 09:06:43;;;;;;;;;;;;;;;;;;6241598;22;19918;-95
2022/09/13 09:09:09;;;;;;;;;;;;;;;;;;6246780;22;19918;-96
2022/09/13 09:11:35;;;;;;;;;;;;;;;;;;6243941;22;19964;-93
2022/09/13 09:14:01;;;;;;;;;;;;;;;;;;6245083;22;19925;-93
2022/09/13 09:16:27;;;;;;;;;;;;;;;;;;6264345;22;19927;-93
2022/09/13 09:18:55;;;;;;;;;;;;;;;;;;6237419;22;20450;-95
2022/09/13 09:21:21;;;;;;;;;;;;;;;;;;6239750;22;19915;-95
2022/09/13 09:23:47;;;;;;;;;;;;;;;;;;6240731;22;19919;-95
2022/09/13 09:26:14;;;;;;;;;;;;;;;;;;6243056;22;19919;-96
2022/09/13 09:28:43;;;;;;;;;;;;;;;;;;6241139;22;19975;-95
2022/09/13 09:31:12;;;;;;;;;;;;;;;;;;6241289;22;20374;-95
2022/09/13 09:33:38;;;;;;;;;;;;;;;;;;6237878;22;19919;-95
2022/09/13 09:36:07;;;;;;;;;;;;;;;;;;6242569;22;19942;-96
2022/09/13 09:38:38;;;;;;;;;;;;;;;;;;6240810;22;20364;-94
2022/09/13 09:41:13;;;;;;;;;;;;;;;;;;6245276;22;19915;-95
2022/09/13 09:43:52;;;;;;;;;;;;;;;;;;6265546;22;19984;-95
2022/09/13 09:46:18;;;;;;;;;;;;;;;;;;6244166;22;19920;-94
2022/09/13 09:48:44;;;;;;;;;;;;;;;;;;6241549;22;20037;-95
2022/09/13 09:51:16;;;;;;;;;;;;;;;;;;6243521;22;20317;-95
2022/09/13 09:53:42;;;;;;;;;;;;;;;;;;6240013;22;19923;-94
2022/09/13 09:56:08;;;;;;;;;;;;;;;;;;6267518;22;19954;-94
2022/09/13 09:58:38;;;;;;;;;;;;;;;;;;6239415;22;19926;-96
2022/09/13 10:01:12;;;;;;;;;;;;;;;;;;6242604;22;19919;-94
2022/09/13 10:03:38;;;;;;;;;;;;;;;;;;6239436;22;19941;-95
2022/09/13 10:06:07;;;;;;;;;;;;;;;;;;6242363;22;20353;-95
2022/09/13 10:08:33;;;;;;;;;;;;;;;;;;6239418;22;19941;-95
2022/09/13 10:11:03;;;;;;;;;;;;;;;;;;6241704;22;20510;-95
2022/09/13 10:13:29;;;;;;;;;;;;;;;;;;6240840;22;19984;-95
2022/09/13 10:15:56;;;;;;;;;;;;;;;;;;6238657;22;20019;-94
2022/09/13 10:18:23;;;;;;;;;;;;;;;;;;6241637;22;19930;-95
2022/09/13 10:20:49;;;;;;;;;;;;;;;;;;6235320;22;19915;-95
2022/09/13 10:23:21;;;;;;;;;;;;;;;;;;6242303;22;19946;-95
2022/09/13 10:25:50;;;;;;;;;;;;;;;;;;6238389;22;19984;-96
2022/09/13 10:28:16;;;;;;;;;;;;;;;;;;6241286;22;19925;-95
2022/09/13 10:30:42;;;;;;;;;;;;;;;;;;6239243;22;19915;-95
2022/09/13 10:33:10;;;;;;;;;;;;;;;;;;6240646;22;19919;-96
2022/09/13 10:35:36;;;;;;;;;;;;;;;;;;6239564;22;19919;-95
2022/09/13 10:38:08;;;;;;;;;;;;;;;;;;6242113;22;19998;-95
2022/09/13 10:40:38;;;;;;;;;;;;;;;;;;6239919;22;20350;-94
2022/09/13 10:43:06;;;;;;;;;;;;;;;;;;6265761;22;20389;-94
2022/09/13 10:45:38;;;;;;;;;;;;;;;;;;6240023;22;19922;-95
2022/09/13 10:48:06;;;;;;;;;;;;;;;;;;6265696;22;19919;-96
2022/09/13 10:50:34;;;;;;;;;;;;;;;;;;6240810;22;19922;-93
2022/09/13 10:53:00;;;;;;;;;;;;;;;;;;6242964;22;19997;-95
2022/09/13 10:55:27;;;;;;;;;;;;;;;;;;6269564;22;20391;-95
2022/09/13 10:58:02;;;;;;;;;;;;;;;;;;6244841;22;19961;-94
2022/09/13 11:00:31;;;;;;;;;;;;;;;;;;6242906;22;20339;-95
2022/09/13 11:02:57;;;;;;;;;;;;;;;;;;6269149;22;19919;-95
2022/09/13 11:05:23;;;;;;;;;;;;;;;;;;6242287;22;19973;-94
2022/09/13 11:07:49;;;;;;;;;;;;;;;;;;6240537;22;19994;-95
2022/09/13 11:10:17;;;;;;;;;;;;;;;;;;6243039;22;19919;-93
2022/09/13 11:12:43;;;;;;;;;;;;;;;;;;6265319;22;19946;-94
2022/09/13 11:15:12;;;;;;;;;;;;;;;;;;6242690;22;20300;-95
2022/09/13 11:17:40;;;;;;;;;;;;;;;;;;6264139;22;19919;-94
2022/09/13 11:20:13;;;;;;;;;;;;;;;;;;6267317;22;19927;-95
2022/09/13 11:22:38;;;;;;;;;;;;;;;;;;6239898;22;19919;-94
2022/09/13 11:25:07;;;;;;;;;;;;;;;;;;6241706;22;19916;-93
2022/09/13 11:27:33;;;;;;;;;;;;;;;;;;6237315;22;19916;-95
2022/09/13 11:30:02;;;;;;;;;;;;;;;;;;6242237;22;20021;-96
2022/09/13 11:32:28;;;;;;;;;;;;;;;;;;6241372;22;20251;-93
2022/09/13 11:34:57;;;;;;;;;;;;;;;;;;6242349;22;19919;-94
2022/09/13 11:37:23;;;;;;;;;;;;;;;;;;6241830;22;19942;-94
2022/09/13 11:39:57;;;;;;;;;;;;;;;;;;6237959;22;20006;-95
2022/09/13 11:42:23;;;;;;;;;;;;;;;;;;6264436;22;20010;-94
2022/09/13 11:44:49;;;;;;;;;;;;;;;;;;6239029;22;20407;-95
2022/09/13 11:47:17;;;;;;;;;;;;;;;;;;6242385;22;19938;-94
2022/09/13 11:49:43;;;;;;;;;;;;;;;;;;6265629;22;19970;-94
2022/09/13 11:52:09;;;;;;;;;;;;;;;;;;6240405;22;19923;-95
2022/09/13 11:54:35;;;;;;;;;;;;;;;;;;6240036;22;19922;-94
2022/09/13 11:57:07;;;;;;;;;;;;;;;;;;6240257;22;19982;-95
2022/09/13 11:59:36;;;;;;;;;;;;;;;;;;6238295;22;19926;-96
2022/09/13 12:02:02;;;;;;;;;;;;;;;;;;6241040;22;19969;-95
2022/09/13 12:04:31;;;;;;;;;;;;;;;;;;6241671;22;19919;-94
2022/09/13 12:07:00;;;;;;;;;;;;;;;;;;6242291;22;19915;-95
2022/09/13 12:09:28;;;;;;;;;;;;;;;;;;6240418;22;19934;-95
2022/09/13 12:11:54;;;;;;;;;;;;;;;;;;6239789;22;19943;-94
2022/09/13 12:14:27;;;;;;;;;;;;;;;;;;6241071;22;20286;-95
2022/09/13 12:16:53;;;;;;;;;;;;;;;;;;6238154;22;20229;-96
2022/09/13 12:19:25;;;;;;;;;;;;;;;;;;6241749;22;19920;-95
2022/09/13 12:22:01;;;;;;;;;;;;;;;;;;;;;
2022/09/13 12:24:27;;;;;;;;;;;;;;;;;;6266897;22;19968;-94
2022/09/13 12:27:05;;;;;;;;;;;;;;;;;;6267689;22;19919;-94
2022/09/13 12:29:38;;;;;;;;;;;;;;;;;;6241097;22;19997;-95
2022/09/13 12:32:04;;;;;;;;;;;;;;;;;;6241599;22;19942;-96
2022/09/13 12:34:33;;;;;;;;;;;;;;;;;;6246840;22;20466;-96
2022/09/13 12:37:00;;;;;;;;;;;;;;;;;;6240821;22;20135;-94
2022/09/13 12:39:26;;;;;;;;;;;;;;;;;;6241462;22;20352;-95
2022/09/13 12:41:54;;;;;;;;;;;;;;;;;;6240303;22;19919;-95
2022/09/13 12:44:20;;;;;;;;;;;;;;;;;;6267366;22;19919;-95
2022/09/13 12:46:49;;;;;;;;;;;;;;;;;;6238130;22;19920;-95
2022/09/13 12:49:15;;;;;;;;;;;;;;;;;;6241035;22;20037;-94
2022/09/13 12:51:43;;;;;;;;;;;;;;;;;;6239172;22;19969;-95
2022/09/13 12:54:09;;;;;;;;;;;;;;;;;;6240637;22;19929;-96
2022/09/13 12:56:35;;;;;;;;;;;;;;;;;;6239672;22;19925;-94
2022/09/13 12:59:07;;;;;;;;;;;;;;;;;;6243029;22;19915;-95
2022/09/13 13:01:36;;;;;;;;;;;;;;;;;;6239345;22;19986;-95
2022/09/13 13:04:04;;;;;;;;;;;;;;;;;;6241885;22;19922;-95
2022/09/13 13:06:34;;;;;;;;;;;;;;;;;;6241361;22;20332;-95
2022/09/13 13:09:02;;;;;;;;;;;;;;;;;;6241384;22;19915;-95
2022/09/13 13:11:34;;;;;;;;;;;;;;;;;;6239000;22;19915;-94
2022/09/13 13:14:01;;;;;;;;;;;;;;;;;;6267089;22;20305;-95
2022/09/13 13:16:30;;;;;;;;;;;;;;;;;;6242190;22;20114;-95
2022/09/13 13:18:59;;;;;;;;;;;;;;;;;;6242674;22;19915;-96
2022/09/13 13:21:30;;;;;;;;;;;;;;;;;;6268387;22;19919;-95
2022/09/13 13:24:02;;;;;;;;;;;;;;;;;;6243403;22;20260;-95
2022/09/13 13:26:34;;;;;;;;;;;;;;;;;;6239557;22;19926;-95
2022/09/13 13:29:00;;;;;;;;;;;;;;;;;;6242931;22;19919;-94
2022/09/13 13:31:29;;;;;;;;;;;;;;;;;;6244599;22;19923;-95
2022/09/13 13:33:57;;;;;;;;;;;;;;;;;;6264200;22;19941;-95
2022/09/13 13:36:32;;;;;;;;;;;;;;;;;;6242599;22;19922;-96
2022/09/13 13:39:01;;;;;;;;;;;;;;;;;;6242292;22;19919;-95
2022/09/13 13:41:39;;;;;;;;;;;;;;;;;;6244498;22;19964;-95
2022/09/13 13:44:08;;;;;;;;;;;;;;;;;;6243960;22;20325;-96
2022/09/13 13:46:34;;;;;;;;;;;;;;;;;;6266611;22;20004;-96
2022/09/13 13:49:02;;;;;;;;;;;;;;;;;;6242304;22;19919;-95
2022/09/13 13:51:31;;;;;;;;;;;;;;;;;;6243256;22;19926;-95
2022/09/13 13:54:15;;;;;;;;;;;;;;;;;;6262768;22;20034;-95
2022/09/13 14:02:14;;;;;;;;;;;;;;;;;;6235735;22;19919;-85
2022/09/13 14:05:01;;;;;;;;;;;;;;;;;;6238921;22;19973;-85
2022/09/13 14:07:36;;;;;;;;;;;;;;;;;;6206419;22;20478;-85
2022/09/13 14:10:05;;;;;;;;;;;;;;;;;;6213586;22;19962;-85
2022/09/13 14:12:46;;;;;;;;;;;;;;;;;;6212327;22;20018;-85
2022/09/13 14:16:04;;;;;;;;;;;;;;;;;;;;;
2022/09/13 14:18:46;;;;;;;;;;;;;;;;;;6262352;22;20052;-85
2022/09/13 14:21:28;;;;;;;;;;;;;;;;;;6242614;22;20221;-86
2022/09/13 14:24:03;;;;;;;;;;;;;;;;;;6210202;22;19961;-85
2022/09/13 14:26:46;;;;;;;;;;;;;;;;;;6205082;23;19919;-84
2022/09/13 14:32:12;;;;;;;;;;;;;;;;;;;;;
2022/09/13 15:09:28;;;;;;;;;;;;;;;;;;6261694;22;19927;-85
2022/09/13 15:11:54;;;;;;;;;;;;;;;;;;6228759;22;19965;-84
2022/09/13 15:14:20;;;;;;;;;;;;;;;;;;6261187;22;19923;-86
2022/09/13 15:16:47;;;;;;;;;;;;;;;;;;6254668;22;19928;-85
2022/09/13 15:19:12;;;;;;;;;;;;;;;;;;6229103;22;20017;-86
2022/09/13 15:21:38;;;;;;;;;;;;;;;;;;6250249;22;20001;-87
2022/09/13 15:24:04;;;;;;;;;;;;;;;;;;6253191;22;20011;-86
2022/09/13 15:26:31;;;;;;;;;;;;;;;;;;6254917;22;19919;-86
2022/09/13 15:28:56;;;;;;;;;;;;;;;;;;6201926;22;19919;-86
2022/09/13 15:31:23;;;;;;;;;;;;;;;;;;6227140;22;20315;-86
2022/09/13 15:33:49;;;;;;;;;;;;;;;;;;6251060;22;19927;-86
2022/09/13 15:36:15;;;;;;;;;;;;;;;;;;6256415;22;19919;-87
2022/09/13 15:38:41;;;;;;;;;;;;;;;;;;6224060;22;19933;-87
2022/09/13 15:41:07;;;;;;;;;;;;;;;;;;6248603;22;20295;-83
2022/09/13 15:43:32;;;;;;;;;;;;;;;;;;6247289;22;20299;-87
2022/09/13 15:46:00;;;;;;;;;;;;;;;;;;6231076;22;19923;-87
2022/09/13 15:48:26;;;;;;;;;;;;;;;;;;6231063;22;19926;-87
2022/09/13 15:50:52;;;;;;;;;;;;;;;;;;6227326;22;19919;-87
2022/09/13 15:53:18;;;;;;;;;;;;;;;;;;6229600;22;20464;-87
2022/09/13 15:55:44;;;;;;;;;;;;;;;;;;6223529;22;20488;-86
2022/09/13 15:58:10;;;;;;;;;;;;;;;;;;6227494;22;19970;-87
2022/09/13 16:00:36;;;;;;;;;;;;;;;;;;6225739;22;19915;-87
2022/09/13 16:03:02;;;;;;;;;;;;;;;;;;6225196;22;19929;-86
2022/09/13 16:05:28;;;;;;;;;;;;;;;;;;6252730;22;19946;-86
2022/09/13 16:07:57;;;;;;;;;;;;;;;;;;6201635;22;19927;-87
2022/09/13 16:10:23;;;;;;;;;;;;;;;;;;6254502;22;20301;-86
2022/09/13 16:12:50;;;;;;;;;;;;;;;;;;6251512;22;19955;-86
2022/09/13 16:15:16;;;;;;;;;;;;;;;;;;6227486;22;19919;-87
2022/09/13 16:17:42;;;;;;;;;;;;;;;;;;6223470;22;20247;-86
2022/09/13 16:20:08;;;;;;;;;;;;;;;;;;6255322;22;19922;-86
2022/09/13 16:22:35;;;;;;;;;;;;;;;;;;6226684;22;20225;-86
2022/09/13 16:25:01;;;;;;;;;;;;;;;;;;6229350;22;20350;-86
2022/09/13 16:27:27;;;;;;;;;;;;;;;;;;6221969;22;19915;-86
2022/09/13 16:29:53;;;;;;;;;;;;;;;;;;6226320;22;19919;-87
2022/09/13 16:32:19;;;;;;;;;;;;;;;;;;6228029;22;19930;-86
2022/09/13 16:34:46;;;;;;;;;;;;;;;;;;6227007;22;19923;-86
2022/09/13 16:37:12;;;;;;;;;;;;;;;;;;6229520;22;19923;-86
2022/09/13 16:39:38;;;;;;;;;;;;;;;;;;6227570;22;19926;-86
2022/09/13 16:42:04;;;;;;;;;;;;;;;;;;6232183;22;19916;-87
2022/09/13 16:44:33;;;;;;;;;;;;;;;;;;6205774;22;20315;-86
2022/09/13 16:46:59;;;;;;;;;;;;;;;;;;6233436;22;19922;-87
2022/09/13 16:49:25;;;;;;;;;;;;;;;;;;6228654;22;20243;-87
2022/09/13 16:51:51;;;;;;;;;;;;;;;;;;6226506;22;19930;-86
2022/09/13 16:54:17;;;;;;;;;;;;;;;;;;6254392;22;20253;-86
2022/09/13 16:56:43;;;;;;;;;;;;;;;;;;6202143;22;19919;-86
2022/09/13 16:59:09;;;;;;;;;;;;;;;;;;6230437;22;19919;-86
2022/09/13 17:18:57;;;;;;;;;;;;;;;;;;6280289;22;20755;-85
2022/09/13 17:21:56;;;;;;;;;;;;;;;;;;6228753;22;19923;-85
2022/09/13 17:24:21;;;;;;;;;;;;;;;;;;6282817;22;19967;-85
2022/09/13 18:01:41;;;;;;;;;;;;;;;;;;6272058;22;20798;-91
2022/09/13 18:07:17;;;;;;;;;;;;;;;;;;6295342;22;19914;-91
2022/09/13 18:13:03;;;;;;;;;;;;;;;;;;6166191;23;19959;-92
2022/09/13 18:15:53;;;;;;;;;;;;;;;;;;6112227;23;19921;-90
2022/09/13 18:28:07;;;;;;;;;;;;;;;;;;;;;
2022/09/13 18:40:22;;;;;;;;;;;;;;;;;;;;;
2022/09/13 18:43:06;;;;;;;;;;;;;;;;;;6055589;23;20346;-90
2022/09/13 18:46:45;;;;;;;;;;;;;;;;;;;;;
2022/09/13 18:49:08;;;;;;;;;;;;;;;;;;;;;
2022/09/13 18:52:15;;;;;;;;;;;;;;;;;;;;;
2022/09/13 18:58:11;;;;;;;;;;;;;;;;;;;;;
2022/09/13 19:00:52;;;;;;;;;;;;;;;;;;6162446;23;19935;-91
2022/09/13 19:03:46;;;;;;;;;;;;;;;;;;6165476;23;19974;-91
2022/09/13 19:22:23;;;;;;;;;;;;;;;;;;;;;
2022/09/13 19:25:04;;;;;;;;;;;;;;;;;;5987332;23;19992;-89
2022/09/13 19:33:49;;;;;;;;;;;;;;;;;;5958899;23;20354;-91
2022/09/13 19:36:43;;;;;;;;;;;;;;;;;;5996890;23;19921;-91